sensor_id;sensor_type;location;lat;lon;timestamp;P1;durP1;ratioP1;P2;durP2;ratioP2
32138;SDS011;18644;48.700;9.210;2022-10-14T00:01:39;2.90;;;2.45;;
32138;SDS011;18644;48.700;9.210;2022-10-14T00:04:09;3.03;;;2.42;;
32138;SDS011;18644;48.700;9.210;2022-10-14T00:06:35;4.07;;;2.42;;
32138;SDS011;18644;48.700;9.210;2022-10-14T00:09:06;6.93;;;2.90;;
32138;SDS011;18644;48.700;9.210;2022-10-14T00:11:35;3.58;;;3.08;;
32138;SDS011;18644;48.700;9.210;2022-10-14T00:14:04;4.10;;;3.38;;
32138;SDS011;18644;48.700;9.210;2022-10-14T00:16:34;5.22;;;2.85;;
32138;SDS011;18644;48.700;9.210;2022-10-14T00:19:04;4.88;;;3.00;;
32138;SDS011;18644;48.700;9.210;2022-10-14T00:21:33;4.85;;;2.70;;
32138;SDS011;18644;48.700;9.210;2022-10-14T00:24:02;3.85;;;2.55;;
32138;SDS011;18644;48.700;9.210;2022-10-14T00:26:30;4.85;;;2.97;;
32138;SDS011;18644;48.700;9.210;2022-10-14T00:28:59;2.83;;;2.50;;
32138;SDS011;18644;48.700;9.210;2022-10-14T00:31:28;3.42;;;2.40;;
32138;SDS011;18644;48.700;9.210;2022-10-14T00:33:56;3.25;;;2.60;;
32138;SDS011;18644;48.700;9.210;2022-10-14T00:36:23;4.03;;;3.35;;
32138;SDS011;18644;48.700;9.210;2022-10-14T00:38:53;3.55;;;2.88;;
32138;SDS011;18644;48.700;9.210;2022-10-14T00:41:22;3.30;;;2.97;;
32138;SDS011;18644;48.700;9.210;2022-10-14T00:43:53;5.45;;;3.33;;
32138;SDS011;18644;48.700;9.210;2022-10-14T00:46:24;5.30;;;3.10;;
32138;SDS011;18644;48.700;9.210;2022-10-14T00:48:52;4.00;;;2.72;;
32138;SDS011;18644;48.700;9.210;2022-10-14T00:51:20;3.97;;;3.03;;
32138;SDS011;18644;48.700;9.210;2022-10-14T00:53:48;5.78;;;3.10;;
32138;SDS011;18644;48.700;9.210;2022-10-14T00:56:18;10.25;;;3.80;;
32138;SDS011;18644;48.700;9.210;2022-10-14T00:58:50;4.25;;;3.05;;
32138;SDS011;18644;48.700;9.210;2022-10-14T01:01:18;4.80;;;2.72;;
32138;SDS011;18644;48.700;9.210;2022-10-14T01:03:45;5.68;;;3.33;;
32138;SDS011;18644;48.700;9.210;2022-10-14T01:06:14;3.63;;;2.55;;
32138;SDS011;18644;48.700;9.210;2022-10-14T01:08:52;3.28;;;2.67;;
32138;SDS011;18644;48.700;9.210;2022-10-14T01:11:29;4.00;;;3.00;;
32138;SDS011;18644;48.700;9.210;2022-10-14T01:14:07;4.13;;;2.70;;
32138;SDS011;18644;48.700;9.210;2022-10-14T01:16:46;3.00;;;2.53;;
32138;SDS011;18644;48.700;9.210;2022-10-14T01:19:32;2.92;;;2.25;;
32138;SDS011;18644;48.700;9.210;2022-10-14T01:22:23;3.05;;;2.60;;
32138;SDS011;18644;48.700;9.210;2022-10-14T01:24:59;4.65;;;2.78;;
32138;SDS011;18644;48.700;9.210;2022-10-14T01:27:46;4.50;;;3.03;;
32138;SDS011;18644;48.700;9.210;2022-10-14T01:30:30;5.18;;;3.00;;
32138;SDS011;18644;48.700;9.210;2022-10-14T01:33:03;4.75;;;3.05;;
32138;SDS011;18644;48.700;9.210;2022-10-14T01:38:29;5.70;;;2.88;;
32138;SDS011;18644;48.700;9.210;2022-10-14T01:41:00;3.53;;;2.80;;
32138;SDS011;18644;48.700;9.210;2022-10-14T01:43:32;3.33;;;2.65;;
32138;SDS011;18644;48.700;9.210;2022-10-14T01:46:02;7.55;;;3.50;;
32138;SDS011;18644;48.700;9.210;2022-10-14T01:48:32;4.82;;;3.13;;
32138;SDS011;18644;48.700;9.210;2022-10-14T01:51:04;4.43;;;3.17;;
32138;SDS011;18644;48.700;9.210;2022-10-14T01:53:38;5.05;;;3.50;;
32138;SDS011;18644;48.700;9.210;2022-10-14T01:56:08;3.95;;;3.42;;
32138;SDS011;18644;48.700;9.210;2022-10-14T01:58:37;3.22;;;2.80;;
32138;SDS011;18644;48.700;9.210;2022-10-14T02:01:07;3.80;;;3.10;;
32138;SDS011;18644;48.700;9.210;2022-10-14T02:03:39;3.65;;;2.88;;
32138;SDS011;18644;48.700;9.210;2022-10-14T02:06:09;3.83;;;3.03;;
32138;SDS011;18644;48.700;9.210;2022-10-14T02:08:46;4.53;;;3.28;;
32138;SDS011;18644;48.700;9.210;2022-10-14T02:11:33;4.00;;;3.25;;
32138;SDS011;18644;48.700;9.210;2022-10-14T02:14:09;4.75;;;3.10;;
32138;SDS011;18644;48.700;9.210;2022-10-14T02:16:47;2.60;;;2.38;;
32138;SDS011;18644;48.700;9.210;2022-10-14T02:19:23;2.85;;;2.65;;
32138;SDS011;18644;48.700;9.210;2022-10-14T02:21:55;5.00;;;2.70;;
32138;SDS011;18644;48.700;9.210;2022-10-14T02:24:28;3.05;;;2.80;;
32138;SDS011;18644;48.700;9.210;2022-10-14T02:27:00;3.05;;;2.75;;
32138;SDS011;18644;48.700;9.210;2022-10-14T02:29:32;3.42;;;2.70;;
32138;SDS011;18644;48.700;9.210;2022-10-14T02:32:03;4.00;;;2.28;;
32138;SDS011;18644;48.700;9.210;2022-10-14T02:34:32;3.75;;;2.22;;
32138;SDS011;18644;48.700;9.210;2022-10-14T02:37:00;4.90;;;2.92;;
32138;SDS011;18644;48.700;9.210;2022-10-14T02:39:28;5.90;;;2.47;;
32138;SDS011;18644;48.700;9.210;2022-10-14T02:41:58;3.20;;;2.60;;
32138;SDS011;18644;48.700;9.210;2022-10-14T02:44:24;4.03;;;2.63;;
32138;SDS011;18644;48.700;9.210;2022-10-14T02:46:53;4.03;;;2.92;;
32138;SDS011;18644;48.700;9.210;2022-10-14T02:49:22;3.22;;;2.83;;
32138;SDS011;18644;48.700;9.210;2022-10-14T02:51:49;4.75;;;2.92;;
32138;SDS011;18644;48.700;9.210;2022-10-14T02:54:16;5.65;;;2.67;;
32138;SDS011;18644;48.700;9.210;2022-10-14T02:56:43;5.05;;;2.78;;
32138;SDS011;18644;48.700;9.210;2022-10-14T02:59:10;3.20;;;2.75;;
32138;SDS011;18644;48.700;9.210;2022-10-14T03:01:37;4.75;;;3.47;;
32138;SDS011;18644;48.700;9.210;2022-10-14T03:04:03;3.00;;;2.60;;
32138;SDS011;18644;48.700;9.210;2022-10-14T03:06:33;3.60;;;2.80;;
32138;SDS011;18644;48.700;9.210;2022-10-14T03:09:06;3.60;;;2.85;;
32138;SDS011;18644;48.700;9.210;2022-10-14T03:11:33;3.20;;;2.90;;
32138;SDS011;18644;48.700;9.210;2022-10-14T03:14:00;11.00;;;3.58;;
32138;SDS011;18644;48.700;9.210;2022-10-14T03:16:27;5.70;;;3.38;;
32138;SDS011;18644;48.700;9.210;2022-10-14T03:18:54;3.42;;;2.78;;
32138;SDS011;18644;48.700;9.210;2022-10-14T03:21:21;5.63;;;3.22;;
32138;SDS011;18644;48.700;9.210;2022-10-14T03:23:49;5.10;;;2.58;;
32138;SDS011;18644;48.700;9.210;2022-10-14T03:26:16;3.67;;;2.53;;
32138;SDS011;18644;48.700;9.210;2022-10-14T03:28:44;3.80;;;2.83;;
32138;SDS011;18644;48.700;9.210;2022-10-14T03:31:11;3.83;;;2.80;;
32138;SDS011;18644;48.700;9.210;2022-10-14T03:33:37;3.40;;;2.50;;
32138;SDS011;18644;48.700;9.210;2022-10-14T03:36:05;4.15;;;3.22;;
32138;SDS011;18644;48.700;9.210;2022-10-14T03:38:32;6.57;;;3.35;;
32138;SDS011;18644;48.700;9.210;2022-10-14T03:41:00;3.88;;;3.30;;
32138;SDS011;18644;48.700;9.210;2022-10-14T03:43:27;4.47;;;3.35;;
32138;SDS011;18644;48.700;9.210;2022-10-14T03:45:54;4.53;;;3.00;;
32138;SDS011;18644;48.700;9.210;2022-10-14T03:48:22;4.60;;;3.03;;
32138;SDS011;18644;48.700;9.210;2022-10-14T03:50:49;7.82;;;3.42;;
32138;SDS011;18644;48.700;9.210;2022-10-14T03:53:16;4.43;;;2.88;;
32138;SDS011;18644;48.700;9.210;2022-10-14T03:55:42;6.20;;;3.60;;
32138;SDS011;18644;48.700;9.210;2022-10-14T03:58:11;7.57;;;3.20;;
32138;SDS011;18644;48.700;9.210;2022-10-14T04:00:38;4.22;;;3.00;;
32138;SDS011;18644;48.700;9.210;2022-10-14T04:03:05;5.78;;;3.15;;
32138;SDS011;18644;48.700;9.210;2022-10-14T04:05:32;4.07;;;3.38;;
32138;SDS011;18644;48.700;9.210;2022-10-14T04:07:59;3.50;;;2.80;;
32138;SDS011;18644;48.700;9.210;2022-10-14T04:10:27;6.10;;;3.42;;
32138;SDS011;18644;48.700;9.210;2022-10-14T04:12:54;5.95;;;3.33;;
32138;SDS011;18644;48.700;9.210;2022-10-14T04:15:23;8.40;;;3.55;;
32138;SDS011;18644;48.700;9.210;2022-10-14T04:17:50;5.68;;;4.20;;
32138;SDS011;18644;48.700;9.210;2022-10-14T04:20:22;4.32;;;3.55;;
32138;SDS011;18644;48.700;9.210;2022-10-14T04:22:58;6.82;;;3.85;;
32138;SDS011;18644;48.700;9.210;2022-10-14T04:25:25;7.30;;;3.92;;
32138;SDS011;18644;48.700;9.210;2022-10-14T04:27:52;6.00;;;4.50;;
32138;SDS011;18644;48.700;9.210;2022-10-14T04:30:19;6.20;;;4.13;;
32138;SDS011;18644;48.700;9.210;2022-10-14T04:32:48;8.57;;;4.72;;
32138;SDS011;18644;48.700;9.210;2022-10-14T04:35:15;5.15;;;4.60;;
32138;SDS011;18644;48.700;9.210;2022-10-14T04:37:42;7.22;;;4.78;;
32138;SDS011;18644;48.700;9.210;2022-10-14T04:40:09;8.90;;;4.32;;
32138;SDS011;18644;48.700;9.210;2022-10-14T04:42:36;5.30;;;4.20;;
32138;SDS011;18644;48.700;9.210;2022-10-14T04:45:03;6.00;;;4.13;;
32138;SDS011;18644;48.700;9.210;2022-10-14T04:47:31;4.10;;;3.70;;
32138;SDS011;18644;48.700;9.210;2022-10-14T04:49:59;5.10;;;3.72;;
32138;SDS011;18644;48.700;9.210;2022-10-14T04:52:26;7.20;;;4.13;;
32138;SDS011;18644;48.700;9.210;2022-10-14T04:54:59;5.13;;;3.85;;
32138;SDS011;18644;48.700;9.210;2022-10-14T04:57:28;7.05;;;4.55;;
32138;SDS011;18644;48.700;9.210;2022-10-14T04:59:55;8.70;;;4.22;;
32138;SDS011;18644;48.700;9.210;2022-10-14T05:02:22;6.45;;;4.15;;
32138;SDS011;18644;48.700;9.210;2022-10-14T05:04:49;5.95;;;4.20;;
32138;SDS011;18644;48.700;9.210;2022-10-14T05:07:17;6.10;;;4.15;;
32138;SDS011;18644;48.700;9.210;2022-10-14T05:09:44;4.43;;;3.70;;
32138;SDS011;18644;48.700;9.210;2022-10-14T05:12:11;3.53;;;3.08;;
32138;SDS011;18644;48.700;9.210;2022-10-14T05:14:39;5.40;;;4.18;;
32138;SDS011;18644;48.700;9.210;2022-10-14T05:17:06;4.25;;;3.17;;
32138;SDS011;18644;48.700;9.210;2022-10-14T05:19:33;3.28;;;2.97;;
32138;SDS011;18644;48.700;9.210;2022-10-14T05:22:00;5.30;;;3.88;;
32138;SDS011;18644;48.700;9.210;2022-10-14T05:24:29;4.15;;;3.55;;
32138;SDS011;18644;48.700;9.210;2022-10-14T05:26:55;7.28;;;4.75;;
32138;SDS011;18644;48.700;9.210;2022-10-14T05:29:22;6.00;;;3.80;;
32138;SDS011;18644;48.700;9.210;2022-10-14T05:31:49;5.20;;;3.97;;
32138;SDS011;18644;48.700;9.210;2022-10-14T05:34:16;7.38;;;3.97;;
32138;SDS011;18644;48.700;9.210;2022-10-14T05:36:43;5.28;;;3.67;;
32138;SDS011;18644;48.700;9.210;2022-10-14T05:39:10;5.07;;;3.53;;
32138;SDS011;18644;48.700;9.210;2022-10-14T05:41:39;7.70;;;4.18;;
32138;SDS011;18644;48.700;9.210;2022-10-14T05:44:06;3.65;;;3.30;;
32138;SDS011;18644;48.700;9.210;2022-10-14T05:46:35;4.50;;;3.35;;
32138;SDS011;18644;48.700;9.210;2022-10-14T05:49:02;6.35;;;4.15;;
32138;SDS011;18644;48.700;9.210;2022-10-14T05:51:30;5.47;;;3.85;;
32138;SDS011;18644;48.700;9.210;2022-10-14T05:53:57;5.07;;;3.88;;
32138;SDS011;18644;48.700;9.210;2022-10-14T05:56:24;5.95;;;4.10;;
32138;SDS011;18644;48.700;9.210;2022-10-14T05:58:52;4.45;;;3.67;;
32138;SDS011;18644;48.700;9.210;2022-10-14T06:01:19;8.40;;;4.97;;
32138;SDS011;18644;48.700;9.210;2022-10-14T06:03:48;6.38;;;4.20;;
32138;SDS011;18644;48.700;9.210;2022-10-14T06:06:15;8.88;;;5.13;;
32138;SDS011;18644;48.700;9.210;2022-10-14T06:08:43;7.70;;;4.25;;
32138;SDS011;18644;48.700;9.210;2022-10-14T06:11:11;6.82;;;4.43;;
32138;SDS011;18644;48.700;9.210;2022-10-14T06:13:38;6.45;;;4.53;;
32138;SDS011;18644;48.700;9.210;2022-10-14T06:16:08;5.88;;;4.25;;
32138;SDS011;18644;48.700;9.210;2022-10-14T06:18:36;5.10;;;4.07;;
32138;SDS011;18644;48.700;9.210;2022-10-14T06:21:05;6.00;;;4.88;;
32138;SDS011;18644;48.700;9.210;2022-10-14T06:23:32;7.82;;;4.50;;
32138;SDS011;18644;48.700;9.210;2022-10-14T06:26:02;5.47;;;4.00;;
32138;SDS011;18644;48.700;9.210;2022-10-14T06:28:30;8.45;;;4.57;;
32138;SDS011;18644;48.700;9.210;2022-10-14T06:30:57;5.10;;;4.15;;
32138;SDS011;18644;48.700;9.210;2022-10-14T06:33:26;5.57;;;4.47;;
32138;SDS011;18644;48.700;9.210;2022-10-14T06:35:53;6.35;;;4.78;;
32138;SDS011;18644;48.700;9.210;2022-10-14T06:38:21;6.40;;;4.45;;
32138;SDS011;18644;48.700;9.210;2022-10-14T06:40:49;6.20;;;4.72;;
32138;SDS011;18644;48.700;9.210;2022-10-14T06:43:16;7.93;;;4.50;;
32138;SDS011;18644;48.700;9.210;2022-10-14T06:45:43;7.78;;;4.78;;
32138;SDS011;18644;48.700;9.210;2022-10-14T06:48:10;7.00;;;4.20;;
32138;SDS011;18644;48.700;9.210;2022-10-14T06:50:40;8.07;;;4.78;;
32138;SDS011;18644;48.700;9.210;2022-10-14T06:53:08;6.03;;;4.90;;
32138;SDS011;18644;48.700;9.210;2022-10-14T06:55:34;7.93;;;4.90;;
32138;SDS011;18644;48.700;9.210;2022-10-14T06:58:01;6.00;;;4.28;;
32138;SDS011;18644;48.700;9.210;2022-10-14T07:00:28;5.95;;;4.70;;
32138;SDS011;18644;48.700;9.210;2022-10-14T07:02:56;8.10;;;5.07;;
32138;SDS011;18644;48.700;9.210;2022-10-14T07:05:23;7.03;;;4.75;;
32138;SDS011;18644;48.700;9.210;2022-10-14T07:07:52;8.50;;;4.85;;
32138;SDS011;18644;48.700;9.210;2022-10-14T07:10:19;6.72;;;4.72;;
32138;SDS011;18644;48.700;9.210;2022-10-14T07:12:46;8.32;;;4.53;;
32138;SDS011;18644;48.700;9.210;2022-10-14T07:15:13;6.60;;;5.00;;
32138;SDS011;18644;48.700;9.210;2022-10-14T07:17:40;6.82;;;4.25;;
32138;SDS011;18644;48.700;9.210;2022-10-14T07:20:07;9.95;;;4.60;;
32138;SDS011;18644;48.700;9.210;2022-10-14T07:22:36;6.93;;;4.65;;
32138;SDS011;18644;48.700;9.210;2022-10-14T07:25:05;5.80;;;4.53;;
32138;SDS011;18644;48.700;9.210;2022-10-14T07:27:33;7.00;;;4.68;;
32138;SDS011;18644;48.700;9.210;2022-10-14T07:30:00;7.28;;;4.75;;
32138;SDS011;18644;48.700;9.210;2022-10-14T07:32:27;6.22;;;4.60;;
32138;SDS011;18644;48.700;9.210;2022-10-14T07:34:54;6.55;;;4.55;;
32138;SDS011;18644;48.700;9.210;2022-10-14T07:37:21;4.47;;;3.20;;
32138;SDS011;18644;48.700;9.210;2022-10-14T07:39:48;3.30;;;2.97;;
32138;SDS011;18644;48.700;9.210;2022-10-14T07:42:17;3.67;;;2.88;;
32138;SDS011;18644;48.700;9.210;2022-10-14T07:44:44;6.28;;;3.45;;
32138;SDS011;18644;48.700;9.210;2022-10-14T07:47:10;4.32;;;3.10;;
32138;SDS011;18644;48.700;9.210;2022-10-14T07:49:38;4.13;;;3.45;;
32138;SDS011;18644;48.700;9.210;2022-10-14T07:52:05;4.20;;;3.15;;
32138;SDS011;18644;48.700;9.210;2022-10-14T07:54:32;4.85;;;3.17;;
32138;SDS011;18644;48.700;9.210;2022-10-14T07:56:58;3.88;;;2.78;;
32138;SDS011;18644;48.700;9.210;2022-10-14T07:59:27;5.28;;;2.92;;
32138;SDS011;18644;48.700;9.210;2022-10-14T08:01:54;6.05;;;3.15;;
32138;SDS011;18644;48.700;9.210;2022-10-14T08:04:21;4.63;;;2.83;;
32138;SDS011;18644;48.700;9.210;2022-10-14T08:06:48;3.85;;;2.75;;
32138;SDS011;18644;48.700;9.210;2022-10-14T08:09:17;3.72;;;3.00;;
32138;SDS011;18644;48.700;9.210;2022-10-14T08:11:44;4.50;;;2.95;;
32138;SDS011;18644;48.700;9.210;2022-10-14T08:14:12;2.90;;;2.53;;
32138;SDS011;18644;48.700;9.210;2022-10-14T08:16:41;7.13;;;2.60;;
32138;SDS011;18644;48.700;9.210;2022-10-14T08:19:09;3.28;;;2.83;;
32138;SDS011;18644;48.700;9.210;2022-10-14T08:21:39;5.17;;;2.90;;
32138;SDS011;18644;48.700;9.210;2022-10-14T08:24:06;3.95;;;3.05;;
32138;SDS011;18644;48.700;9.210;2022-10-14T08:26:34;2.65;;;2.40;;
32138;SDS011;18644;48.700;9.210;2022-10-14T08:29:03;2.88;;;2.55;;
32138;SDS011;18644;48.700;9.210;2022-10-14T08:31:35;2.83;;;2.60;;
32138;SDS011;18644;48.700;9.210;2022-10-14T08:34:04;6.40;;;3.00;;
32138;SDS011;18644;48.700;9.210;2022-10-14T08:36:31;4.10;;;2.85;;
32138;SDS011;18644;48.700;9.210;2022-10-14T08:38:58;4.15;;;3.40;;
32138;SDS011;18644;48.700;9.210;2022-10-14T08:41:30;3.40;;;2.55;;
32138;SDS011;18644;48.700;9.210;2022-10-14T08:44:15;5.30;;;3.28;;
32138;SDS011;18644;48.700;9.210;2022-10-14T08:46:49;4.07;;;3.10;;
32138;SDS011;18644;48.700;9.210;2022-10-14T08:49:22;3.63;;;3.07;;
32138;SDS011;18644;48.700;9.210;2022-10-14T08:51:55;3.05;;;2.45;;
32138;SDS011;18644;48.700;9.210;2022-10-14T08:54:31;3.30;;;3.00;;
32138;SDS011;18644;48.700;9.210;2022-10-14T08:57:02;4.85;;;3.10;;
32138;SDS011;18644;48.700;9.210;2022-10-14T08:59:31;4.97;;;3.00;;
32138;SDS011;18644;48.700;9.210;2022-10-14T09:02:12;3.28;;;2.70;;
32138;SDS011;18644;48.700;9.210;2022-10-14T09:04:48;4.95;;;3.10;;
32138;SDS011;18644;48.700;9.210;2022-10-14T09:07:15;3.67;;;2.83;;
32138;SDS011;18644;48.700;9.210;2022-10-14T09:09:44;4.35;;;2.80;;
32138;SDS011;18644;48.700;9.210;2022-10-14T09:12:15;5.65;;;2.63;;
32138;SDS011;18644;48.700;9.210;2022-10-14T09:14:53;4.95;;;2.63;;
32138;SDS011;18644;48.700;9.210;2022-10-14T09:17:31;5.18;;;2.40;;
32138;SDS011;18644;48.700;9.210;2022-10-14T09:20:09;3.10;;;2.30;;
32138;SDS011;18644;48.700;9.210;2022-10-14T09:22:43;3.17;;;2.47;;
32138;SDS011;18644;48.700;9.210;2022-10-14T09:25:11;2.90;;;2.22;;
32138;SDS011;18644;48.700;9.210;2022-10-14T09:27:40;3.15;;;2.50;;
32138;SDS011;18644;48.700;9.210;2022-10-14T09:30:08;3.58;;;2.60;;
32138;SDS011;18644;48.700;9.210;2022-10-14T09:32:41;4.35;;;2.58;;
32138;SDS011;18644;48.700;9.210;2022-10-14T09:35:15;4.57;;;2.90;;
32138;SDS011;18644;48.700;9.210;2022-10-14T09:37:49;3.63;;;2.60;;
32138;SDS011;18644;48.700;9.210;2022-10-14T09:40:17;3.72;;;2.65;;
32138;SDS011;18644;48.700;9.210;2022-10-14T09:42:54;3.25;;;2.45;;
32138;SDS011;18644;48.700;9.210;2022-10-14T09:45:25;3.13;;;2.53;;
32138;SDS011;18644;48.700;9.210;2022-10-14T09:47:55;4.65;;;2.80;;
32138;SDS011;18644;48.700;9.210;2022-10-14T09:50:30;3.88;;;2.67;;
32138;SDS011;18644;48.700;9.210;2022-10-14T09:53:02;4.13;;;2.42;;
32138;SDS011;18644;48.700;9.210;2022-10-14T09:55:38;4.53;;;3.10;;
32138;SDS011;18644;48.700;9.210;2022-10-14T09:58:14;3.65;;;2.60;;
32138;SDS011;18644;48.700;9.210;2022-10-14T10:00:44;3.90;;;2.53;;
32138;SDS011;18644;48.700;9.210;2022-10-14T10:03:22;2.70;;;2.30;;
32138;SDS011;18644;48.700;9.210;2022-10-14T10:06:00;4.60;;;2.78;;
32138;SDS011;18644;48.700;9.210;2022-10-14T10:08:31;5.63;;;2.60;;
32138;SDS011;18644;48.700;9.210;2022-10-14T10:11:01;2.67;;;2.38;;
32138;SDS011;18644;48.700;9.210;2022-10-14T10:13:31;3.47;;;2.55;;
32138;SDS011;18644;48.700;9.210;2022-10-14T10:16:03;5.63;;;2.55;;
32138;SDS011;18644;48.700;9.210;2022-10-14T10:18:33;3.92;;;3.03;;
32138;SDS011;18644;48.700;9.210;2022-10-14T10:21:03;3.00;;;2.40;;
32138;SDS011;18644;48.700;9.210;2022-10-14T10:23:34;5.25;;;2.60;;
32138;SDS011;18644;48.700;9.210;2022-10-14T10:26:15;5.88;;;2.92;;
32138;SDS011;18644;48.700;9.210;2022-10-14T10:28:45;2.88;;;2.50;;
32138;SDS011;18644;48.700;9.210;2022-10-14T10:31:18;2.55;;;2.10;;
32138;SDS011;18644;48.700;9.210;2022-10-14T10:34:00;4.40;;;2.55;;
32138;SDS011;18644;48.700;9.210;2022-10-14T10:36:40;5.43;;;3.67;;
32138;SDS011;18644;48.700;9.210;2022-10-14T10:39:13;5.32;;;2.75;;
32138;SDS011;18644;48.700;9.210;2022-10-14T10:41:54;4.70;;;2.83;;
32138;SDS011;18644;48.700;9.210;2022-10-14T10:44:39;9.38;;;3.03;;
32138;SDS011;18644;48.700;9.210;2022-10-14T10:47:28;2.92;;;2.50;;
32138;SDS011;18644;48.700;9.210;2022-10-14T10:50:13;3.35;;;1.90;;
32138;SDS011;18644;48.700;9.210;2022-10-14T10:53:01;5.68;;;2.70;;
32138;SDS011;18644;48.700;9.210;2022-10-14T10:55:51;4.47;;;2.50;;
32138;SDS011;18644;48.700;9.210;2022-10-14T10:58:34;3.85;;;2.50;;
32138;SDS011;18644;48.700;9.210;2022-10-14T11:01:10;2.75;;;1.90;;
32138;SDS011;18644;48.700;9.210;2022-10-14T11:04:03;2.55;;;1.70;;
32138;SDS011;18644;48.700;9.210;2022-10-14T11:06:45;4.25;;;1.80;;
32138;SDS011;18644;48.700;9.210;2022-10-14T11:09:41;2.58;;;1.80;;
32138;SDS011;18644;48.700;9.210;2022-10-14T11:12:37;2.53;;;1.83;;
32138;SDS011;18644;48.700;9.210;2022-10-14T11:15:15;2.30;;;1.52;;
32138;SDS011;18644;48.700;9.210;2022-10-14T11:17:57;4.72;;;1.60;;
32138;SDS011;18644;48.700;9.210;2022-10-14T11:20:30;2.85;;;1.80;;
32138;SDS011;18644;48.700;9.210;2022-10-14T11:23:28;4.05;;;1.67;;
32138;SDS011;18644;48.700;9.210;2022-10-14T11:26:12;2.58;;;1.80;;
32138;SDS011;18644;48.700;9.210;2022-10-14T11:28:52;2.63;;;1.70;;
32138;SDS011;18644;48.700;9.210;2022-10-14T11:31:35;3.15;;;2.00;;
32138;SDS011;18644;48.700;9.210;2022-10-14T11:34:13;5.18;;;2.10;;
32138;SDS011;18644;48.700;9.210;2022-10-14T11:37:01;2.53;;;1.60;;
32138;SDS011;18644;48.700;9.210;2022-10-14T11:39:39;2.60;;;1.67;;
32138;SDS011;18644;48.700;9.210;2022-10-14T11:42:18;3.63;;;1.77;;
32138;SDS011;18644;48.700;9.210;2022-10-14T11:44:57;1.70;;;1.60;;
32138;SDS011;18644;48.700;9.210;2022-10-14T11:47:36;3.20;;;1.33;;
32138;SDS011;18644;48.700;9.210;2022-10-14T11:50:10;3.83;;;1.58;;
32138;SDS011;18644;48.700;9.210;2022-10-14T11:52:42;3.20;;;1.63;;
32138;SDS011;18644;48.700;9.210;2022-10-14T11:55:15;2.67;;;1.65;;
32138;SDS011;18644;48.700;9.210;2022-10-14T11:57:49;2.85;;;1.65;;
32138;SDS011;18644;48.700;9.210;2022-10-14T12:00:19;3.95;;;1.80;;
32138;SDS011;18644;48.700;9.210;2022-10-14T12:02:50;5.43;;;1.80;;
32138;SDS011;18644;48.700;9.210;2022-10-14T12:05:25;4.35;;;1.50;;
32138;SDS011;18644;48.700;9.210;2022-10-14T12:08:05;3.30;;;1.85;;
32138;SDS011;18644;48.700;9.210;2022-10-14T12:10:44;3.33;;;1.65;;
32138;SDS011;18644;48.700;9.210;2022-10-14T12:13:17;1.60;;;1.45;;
32138;SDS011;18644;48.700;9.210;2022-10-14T12:15:51;2.40;;;1.45;;
32138;SDS011;18644;48.700;9.210;2022-10-14T12:18:19;2.08;;;1.38;;
32138;SDS011;18644;48.700;9.210;2022-10-14T12:20:48;5.45;;;1.33;;
32138;SDS011;18644;48.700;9.210;2022-10-14T12:23:23;2.38;;;1.40;;
32138;SDS011;18644;48.700;9.210;2022-10-14T12:26:00;1.50;;;1.27;;
32138;SDS011;18644;48.700;9.210;2022-10-14T12:28:56;1.58;;;1.33;;
32138;SDS011;18644;48.700;9.210;2022-10-14T12:31:46;2.40;;;1.35;;
32138;SDS011;18644;48.700;9.210;2022-10-14T12:34:28;1.23;;;1.10;;
32138;SDS011;18644;48.700;9.210;2022-10-14T12:36:59;2.55;;;1.25;;
32138;SDS011;18644;48.700;9.210;2022-10-14T12:40:24;1.75;;;0.95;;
32138;SDS011;18644;48.700;9.210;2022-10-14T12:42:59;1.25;;;1.13;;
32138;SDS011;18644;48.700;9.210;2022-10-14T12:45:45;5.97;;;1.23;;
32138;SDS011;18644;48.700;9.210;2022-10-14T12:48:19;2.88;;;1.13;;
32138;SDS011;18644;48.700;9.210;2022-10-14T12:50:48;4.70;;;1.38;;
32138;SDS011;18644;48.700;9.210;2022-10-14T12:53:23;1.75;;;1.00;;
32138;SDS011;18644;48.700;9.210;2022-10-14T12:55:55;1.10;;;0.98;;
32138;SDS011;18644;48.700;9.210;2022-10-14T12:58:28;0.80;;;0.70;;
32138;SDS011;18644;48.700;9.210;2022-10-14T13:00:58;1.13;;;1.02;;
32138;SDS011;18644;48.700;9.210;2022-10-14T13:03:31;2.35;;;1.00;;
32138;SDS011;18644;48.700;9.210;2022-10-14T13:06:25;1.52;;;1.00;;
32138;SDS011;18644;48.700;9.210;2022-10-14T13:18:35;1.08;;;1.00;;
32138;SDS011;18644;48.700;9.210;2022-10-14T13:21:28;0.68;;;0.60;;
32138;SDS011;18644;48.700;9.210;2022-10-14T13:24:22;1.08;;;0.90;;
32138;SDS011;18644;48.700;9.210;2022-10-14T13:27:07;1.10;;;1.00;;
32138;SDS011;18644;48.700;9.210;2022-10-14T13:29:48;1.85;;;0.93;;
32138;SDS011;18644;48.700;9.210;2022-10-14T13:32:31;1.23;;;0.90;;
32138;SDS011;18644;48.700;9.210;2022-10-14T13:35:11;2.05;;;0.82;;
32138;SDS011;18644;48.700;9.210;2022-10-14T13:37:55;1.00;;;0.90;;
32138;SDS011;18644;48.700;9.210;2022-10-14T13:40:26;0.70;;;0.70;;
32138;SDS011;18644;48.700;9.210;2022-10-14T13:43:00;3.00;;;0.90;;
32138;SDS011;18644;48.700;9.210;2022-10-14T13:45:35;1.13;;;0.82;;
32138;SDS011;18644;48.700;9.210;2022-10-14T13:51:02;2.05;;;0.70;;
32138;SDS011;18644;48.700;9.210;2022-10-14T13:54:07;2.25;;;0.80;;
32138;SDS011;18644;48.700;9.210;2022-10-14T13:56:41;0.70;;;0.70;;
32138;SDS011;18644;48.700;9.210;2022-10-14T13:59:16;0.82;;;0.70;;
32138;SDS011;18644;48.700;9.210;2022-10-14T14:01:50;2.42;;;0.77;;
32138;SDS011;18644;48.700;9.210;2022-10-14T14:04:22;1.05;;;0.85;;
32138;SDS011;18644;48.700;9.210;2022-10-14T14:06:52;2.45;;;1.10;;
32138;SDS011;18644;48.700;9.210;2022-10-14T14:09:20;0.77;;;0.70;;
32138;SDS011;18644;48.700;9.210;2022-10-14T14:11:54;1.40;;;0.60;;
32138;SDS011;18644;48.700;9.210;2022-10-14T14:14:29;1.17;;;0.90;;
32138;SDS011;18644;48.700;9.210;2022-10-14T14:17:05;0.60;;;0.60;;
32138;SDS011;18644;48.700;9.210;2022-10-14T14:19:41;0.88;;;0.73;;
